EST,Max TemperatureF,Mean TemperatureF,Min TemperatureF,Max Dew PointF,MeanDew PointF,Min DewpointF,Max Humidity, Mean Humidity, Min Humidity, Max Sea Level PressureIn, Mean Sea Level PressureIn, Min Sea Level PressureIn, Max VisibilityMiles, Mean VisibilityMiles, Min VisibilityMiles, Max Wind SpeedMPH, Mean Wind SpeedMPH, Max Gust SpeedMPH,PrecipitationIn, CloudCover, Events, WindDirDegrees
2013-12-1,45,36,27,36,29,24,93,75,61,30.09,30.04,29.99,10,6,2,12,5,,0.00,2,,278
2013-12-2,41,32,24,31,27,21,93,83,60,29.99,29.92,29.83,8,4,2,12,3,,0.01,6,Rain-Snow,103
2013-12-3,48,42,35,45,38,32,93,88,83,29.84,29.79,29.75,5,3,2,13,9,,0.09,7,Rain,134
2013-12-4,61,54,46,56,48,43,94,89,82,29.82,29.73,29.61,6,3,0,17,9,25,0.00,7,Fog,153
2013-12-5,60,44,28,55,31,19,88,73,60,30.22,29.92,29.63,10,9,4,22,15,29,0.00,5,,262
2013-12-6,28,26,24,20,18,12,72,67,59,30.45,30.30,30.19,10,10,10,12,9,,0.00,7,,326
2013-12-7,25,20,15,18,12,10,80,69,54,30.65,30.58,30.46,10,9,2,15,9,18,0.00,5,Snow,308
2013-12-8,27,22,16,25,19,10,93,80,61,30.58,30.18,29.96,10,5,1,18,9,24,0.00,6,Snow,110
2013-12-9,28,22,15,25,18,6,93,76,65,30.21,30.05,29.91,10,6,2,20,12,29,0.00,6,Snow,239
2013-12-10,23,13,3,11,6,-4,76,65,54,30.30,30.15,30.01,10,10,10,25,14,37,0.00,4,,242
2013-12-11,24,17,10,19,13,2,86,77,62,30.51,30.34,30.25,10,4,0,16,10,26,0.00,8,Fog-Snow,279
2013-12-12,19,8,-2,9,1,-8,76,66,51,30.53,30.42,30.28,10,10,8,21,11,29,0.00,3,,233
2013-12-13,30,21,12,25,15,5,93,70,56,30.27,30.20,30.14,10,8,0,12,7,,0.02,3,Fog-Snow,146
2013-12-14,27,24,21,25,21,17,93,85,80,30.17,29.99,29.82,10,2,0,18,12,25,0.00,8,Fog-Snow,63
2013-12-15,26,18,10,21,12,4,86,77,68,30.12,29.97,29.87,10,6,1,21,12,28,0.00,8,Snow,252
2013-12-16,21,14,6,16,11,3,92,82,65,30.19,30.08,30.00,10,4,0,9,3,,0.00,5,Fog-Snow,136
2013-12-17,28,23,18,24,18,15,93,85,74,30.08,30.00,29.93,10,3,0,20,11,23,0.00,8,Fog-Snow,231
2013-12-18,33,21,12,21,14,8,84,69,54,30.22,30.08,29.92,10,10,10,16,11,22,0.00,1,,214
2013-12-19,42,38,34,38,33,23,100,80,64,29.98,29.90,29.84,10,7,0,16,9,,0.00,4,Fog,181
2013-12-20,44,40,37,43,40,35,100,93,87,29.83,29.77,29.71,4,1,0,13,8,,0.43,8,Fog-Rain,192
2013-12-21,37,35,33,36,34,32,100,94,87,29.83,29.75,29.58,10,2,0,18,6,23,0.96,8,Fog-Rain,23
2013-12-22,37,35,32,34,33,28,100,92,85,30.04,29.72,29.49,10,4,1,20,9,26,0.18,8,Rain-Snow,285
2013-12-23,32,20,8,28,19,1,87,79,68,30.42,30.25,30.02,10,8,3,17,13,22,0.00,7,Snow,267
2013-12-24,18,10,3,11,4,-2,85,77,71,30.57,30.49,30.38,10,6,1,16,11,18,0.00,6,Snow,230
2013-12-25,27,22,18,25,18,12,93,80,68,30.47,30.25,30.08,10,6,0,18,12,25,0.01,8,Snow,194
2013-12-26,33,26,19,25,20,13,93,78,63,30.32,30.19,30.05,10,7,1,20,12,30,0.00,8,Snow,230
2013-12-27,41,36,30,31,28,25,82,75,67,30.33,30.24,30.14,10,10,7,20,10,26,0.00,3,,214
2013-12-28,48,42,35,34,31,29,82,69,58,30.14,30.06,29.91,10,10,10,16,12,24,0.00,0,,213
2013-12-29,42,33,24,33,26,18,89,78,65,30.08,29.89,29.76,10,8,2,21,11,28,0.00,5,Snow,287
2013-12-30,24,20,15,18,12,8,86,75,60,30.30,30.18,30.06,10,7,1,16,10,,0.00,8,Snow,274
2013-12-31,16,14,12,12,9,5,86,79,65,30.37,30.25,30.12,10,3,1,17,10,,0.04,8,Snow,255